Time;durP1;ratioP1;P1;durP2;ratioP2;P2;SDS_P1;SDS_P2;PMS_P1;PMS_P2;Temp;Humidity;BMP_temperature;BMP_pressure;BME280_temperature;BME280_humidity;BME280_pressure;Samples;Min_cycle;Max_cycle;Signal;HPM_P1;HPM_P2
2022/10/29 00:01:39;;;;;;;21.45;7.32;;;;;;;;;;5077656;28;20199;-67
2022/10/29 00:04:05;;;;;;;20.40;6.38;;;;;;;;;;5074290;28;20397;-67
2022/10/29 00:06:30;;;;;;;24.50;6.18;;;;;;;;;;5079057;28;20181;-67
2022/10/29 00:08:56;;;;;;;23.15;6.43;;;;;;;;;;5071412;28;20184;-66
2022/10/29 00:11:21;;;;;;;22.02;6.65;;;;;;;;;;5069391;28;20173;-66
2022/10/29 00:13:51;;;;;;;20.83;6.03;;;;;;;;;;5072997;28;20195;-66
2022/10/29 00:16:19;;;;;;;22.83;6.43;;;;;;;;;;5071230;28;20177;-67
2022/10/29 00:18:44;;;;;;;18.27;6.18;;;;;;;;;;5068905;28;20652;-66
2022/10/29 00:21:17;;;;;;;17.30;6.40;;;;;;;;;;5071774;28;20212;-66
2022/10/29 00:23:42;;;;;;;16.73;6.78;;;;;;;;;;5070392;28;20183;-66
2022/10/29 00:26:08;;;;;;;25.83;6.80;;;;;;;;;;5074530;28;20185;-66
2022/10/29 00:28:33;;;;;;;19.27;6.50;;;;;;;;;;5071436;28;20564;-67
2022/10/29 00:31:09;;;;;;;20.55;6.25;;;;;;;;;;5070160;28;20228;-67
2022/10/29 00:33:34;;;;;;;16.45;6.85;;;;;;;;;;5070752;28;20207;-67
2022/10/29 00:36:08;;;;;;;13.65;5.70;;;;;;;;;;5061783;28;20215;-67
2022/10/29 00:38:34;;;;;;;18.90;6.15;;;;;;;;;;5071310;28;20188;-66
2022/10/29 00:41:00;;;;;;;19.95;6.35;;;;;;;;;;5079918;28;20555;-67
2022/10/29 00:43:26;;;;;;;17.90;6.50;;;;;;;;;;5076135;28;20188;-67
2022/10/29 00:45:56;;;;;;;20.08;6.28;;;;;;;;;;5086636;28;20698;-67
2022/10/29 00:48:24;;;;;;;17.65;6.93;;;;;;;;;;5081915;28;20184;-67
2022/10/29 00:50:50;;;;;;;19.08;6.75;;;;;;;;;;5081883;28;20187;-67
2022/10/29 00:53:19;;;;;;;21.85;8.30;;;;;;;;;;5079320;28;20219;-66
2022/10/29 00:55:44;;;;;;;22.67;8.10;;;;;;;;;;5080795;28;20675;-67
2022/10/29 00:58:10;;;;;;;28.30;9.43;;;;;;;;;;5084485;28;20187;-67
2022/10/29 01:00:37;;;;;;;27.35;8.75;;;;;;;;;;5077855;28;20193;-67
2022/10/29 01:03:03;;;;;;;22.20;8.98;;;;;;;;;;5075966;28;20180;-67
2022/10/29 01:05:30;;;;;;;21.58;7.72;;;;;;;;;;5083130;28;20180;-67
2022/10/29 01:07:55;;;;;;;16.33;7.65;;;;;;;;;;5087466;28;20588;-67
2022/10/29 01:10:35;;;;;;;22.70;8.10;;;;;;;;;;5088642;28;20199;-67
2022/10/29 01:13:12;;;;;;;18.95;7.60;;;;;;;;;;5084533;28;20226;-67
2022/10/29 01:16:00;;;;;;;21.92;8.20;;;;;;;;;;5083762;28;20332;-67
2022/10/29 01:18:36;;;;;;;19.08;8.23;;;;;;;;;;5074412;28;20196;-67
2022/10/29 01:21:35;;;;;;;18.20;7.28;;;;;;;;;;5068333;28;20188;-67
2022/10/29 01:24:38;;;;;;;21.83;7.63;;;;;;;;;;5077497;28;20181;-68
2022/10/29 01:27:22;;;;;;;20.35;7.95;;;;;;;;;;5069832;28;20176;-68
2022/10/29 01:30:14;;;;;;;19.20;7.85;;;;;;;;;;5084625;28;20232;-67
2022/10/29 01:32:52;;;;;;;22.60;8.38;;;;;;;;;;5073096;28;20208;-66
2022/10/29 01:35:31;;;;;;;19.30;7.88;;;;;;;;;;5073495;28;20567;-66
2022/10/29 01:38:23;;;;;;;21.98;8.70;;;;;;;;;;5074945;28;20558;-67
2022/10/29 01:40:56;;;;;;;23.15;8.63;;;;;;;;;;5086032;28;20631;-67
2022/10/29 01:43:30;;;;;;;22.75;8.32;;;;;;;;;;5086720;28;20695;-67
2022/10/29 01:46:08;;;;;;;20.27;7.93;;;;;;;;;;5077665;28;20258;-67
2022/10/29 01:48:38;;;;;;;22.92;8.25;;;;;;;;;;5092035;28;20700;-66
2022/10/29 01:51:10;;;;;;;19.45;8.32;;;;;;;;;;5074969;28;20188;-68
2022/10/29 01:53:37;;;;;;;18.42;8.02;;;;;;;;;;5074843;28;20199;-67
2022/10/29 01:56:02;;;;;;;20.35;8.88;;;;;;;;;;5074451;28;20781;-67
2022/10/29 01:58:28;;;;;;;22.85;9.05;;;;;;;;;;5088751;28;20263;-66
2022/10/29 02:01:02;;;;;;;23.88;9.82;;;;;;;;;;5085416;28;20272;-67
2022/10/29 02:03:58;;;;;;;23.35;8.95;;;;;;;;;;5089067;28;20251;-68
2022/10/29 02:06:49;;;;;;;24.17;9.05;;;;;;;;;;5079870;28;20245;-68
2022/10/29 02:09:47;;;;;;;27.20;8.25;;;;;;;;;;5086788;28;20551;-67
2022/10/29 02:12:22;;;;;;;24.42;9.25;;;;;;;;;;5066223;28;20700;-67
2022/10/29 02:15:08;;;;;;;22.90;8.98;;;;;;;;;;5077243;28;20226;-68
2022/10/29 02:17:34;;;;;;;19.70;8.75;;;;;;;;;;5075549;28;20329;-67
2022/10/29 02:20:08;;;;;;;20.02;7.95;;;;;;;;;;5087694;28;20275;-66
2022/10/29 02:22:34;;;;;;;20.55;8.02;;;;;;;;;;5077454;28;20191;-68
2022/10/29 02:25:00;;;;;;;21.35;7.40;;;;;;;;;;5078636;28;20203;-68
2022/10/29 02:27:26;;;;;;;16.48;7.15;;;;;;;;;;5071444;28;20185;-68
2022/10/29 02:29:51;;;;;;;19.70;7.85;;;;;;;;;;5079409;28;20215;-68
2022/10/29 02:32:16;;;;;;;23.33;8.05;;;;;;;;;;5087024;28;20427;-68
2022/10/29 02:34:42;;;;;;;21.40;8.20;;;;;;;;;;5091828;28;20231;-68
2022/10/29 02:37:07;;;;;;;25.05;7.90;;;;;;;;;;5082094;28;20267;-67
2022/10/29 02:39:33;;;;;;;13.20;6.93;;;;;;;;;;5089967;28;20627;-68
2022/10/29 02:41:58;;;;;;;18.00;7.68;;;;;;;;;;5079734;28;20509;-68
2022/10/29 02:44:24;;;;;;;17.17;7.28;;;;;;;;;;5078041;28;20230;-68
2022/10/29 02:46:49;;;;;;;17.90;7.85;;;;;;;;;;5091647;28;20552;-68
2022/10/29 02:49:15;;;;;;;13.73;7.05;;;;;;;;;;5090447;28;20188;-68
2022/10/29 02:51:40;;;;;;;21.48;8.18;;;;;;;;;;5090756;28;20184;-68
2022/10/29 02:54:05;;;;;;;21.00;8.77;;;;;;;;;;5087169;28;20460;-69
2022/10/29 02:56:31;;;;;;;27.02;9.30;;;;;;;;;;5090580;28;20203;-69
2022/10/29 02:58:56;;;;;;;19.33;8.50;;;;;;;;;;5087213;28;20187;-69
2022/10/29 03:01:21;;;;;;;15.80;8.27;;;;;;;;;;5076546;28;20187;-68
2022/10/29 03:03:47;;;;;;;15.55;8.25;;;;;;;;;;5080613;28;20229;-69
2022/10/29 03:06:13;;;;;;;16.08;8.98;;;;;;;;;;5080687;28;20241;-69
2022/10/29 03:08:39;;;;;;;19.67;8.57;;;;;;;;;;5074251;28;20266;-69
2022/10/29 03:11:04;;;;;;;18.77;8.40;;;;;;;;;;5088490;28;20263;-69
2022/10/29 03:13:29;;;;;;;25.27;9.85;;;;;;;;;;5079437;28;20314;-68
2022/10/29 03:15:55;;;;;;;18.85;9.38;;;;;;;;;;5086180;28;20305;-68
2022/10/29 03:18:20;;;;;;;19.48;9.15;;;;;;;;;;5075285;28;20275;-68
2022/10/29 03:20:46;;;;;;;21.27;8.40;;;;;;;;;;5089932;28;20252;-68
2022/10/29 03:23:12;;;;;;;21.58;8.85;;;;;;;;;;5087967;28;20192;-68
2022/10/29 03:25:37;;;;;;;21.50;8.48;;;;;;;;;;5090627;28;20310;-69
2022/10/29 03:28:03;;;;;;;17.67;8.18;;;;;;;;;;5090842;28;20233;-69
2022/10/29 03:30:28;;;;;;;18.52;8.80;;;;;;;;;;5075957;28;20605;-68
2022/10/29 03:32:53;;;;;;;16.88;8.07;;;;;;;;;;5089271;28;20218;-68
2022/10/29 03:35:19;;;;;;;21.23;9.00;;;;;;;;;;5077016;28;20208;-68
2022/10/29 03:37:48;;;;;;;20.10;8.60;;;;;;;;;;5087489;28;20235;-68
2022/10/29 03:40:13;;;;;;;18.08;9.48;;;;;;;;;;5077572;28;20189;-69
2022/10/29 03:42:39;;;;;;;19.05;7.97;;;;;;;;;;5087650;28;20199;-69
2022/10/29 03:45:04;;;;;;;20.88;8.00;;;;;;;;;;5079118;28;20181;-69
2022/10/29 03:47:32;;;;;;;19.27;6.72;;;;;;;;;;5086565;28;20188;-68
2022/10/29 03:49:57;;;;;;;14.77;6.03;;;;;;;;;;5078893;28;20238;-69
2022/10/29 03:52:22;;;;;;;16.25;6.40;;;;;;;;;;5078164;28;20189;-69
2022/10/29 03:54:48;;;;;;;10.70;5.70;;;;;;;;;;5089635;28;20341;-68
2022/10/29 03:57:13;;;;;;;13.77;5.38;;;;;;;;;;5078069;28;20275;-69
2022/10/29 03:59:38;;;;;;;16.02;6.22;;;;;;;;;;5074429;28;20488;-68
2022/10/29 04:02:04;;;;;;;8.80;5.50;;;;;;;;;;5082052;28;20295;-68
2022/10/29 04:04:29;;;;;;;10.82;5.63;;;;;;;;;;5079437;28;20233;-67
2022/10/29 04:06:54;;;;;;;14.32;6.20;;;;;;;;;;5081099;28;20185;-68
2022/10/29 04:09:20;;;;;;;17.48;6.20;;;;;;;;;;5073852;28;20191;-69
2022/10/29 04:11:45;;;;;;;11.65;6.43;;;;;;;;;;5070022;28;20542;-69
2022/10/29 04:14:10;;;;;;;15.10;6.78;;;;;;;;;;5089255;28;20204;-68
2022/10/29 04:16:36;;;;;;;12.50;6.55;;;;;;;;;;5083343;28;20271;-68
2022/10/29 04:19:02;;;;;;;16.58;6.68;;;;;;;;;;5075490;28;20241;-68
2022/10/29 04:21:27;;;;;;;10.60;7.22;;;;;;;;;;5089243;28;20294;-68
2022/10/29 04:23:53;;;;;;;15.23;6.88;;;;;;;;;;5081116;28;20658;-68
2022/10/29 04:26:18;;;;;;;15.25;6.95;;;;;;;;;;5084598;28;20203;-68
2022/10/29 04:28:48;;;;;;;16.40;8.00;;;;;;;;;;5071997;28;20177;-68
2022/10/29 04:31:13;;;;;;;15.95;7.60;;;;;;;;;;5077289;28;20231;-68
2022/10/29 04:33:38;;;;;;;21.95;9.20;;;;;;;;;;5072382;28;20192;-66
2022/10/29 04:36:04;;;;;;;27.02;9.60;;;;;;;;;;5087608;28;20750;-66
2022/10/29 04:38:30;;;;;;;15.52;8.93;;;;;;;;;;5069713;28;20587;-66
2022/10/29 04:40:59;;;;;;;18.10;8.90;;;;;;;;;;5081920;28;20178;-68
2022/10/29 04:43:25;;;;;;;18.52;9.55;;;;;;;;;;5083753;28;20184;-68
2022/10/29 04:45:52;;;;;;;21.10;9.63;;;;;;;;;;5077570;28;20653;-68
2022/10/29 04:48:18;;;;;;;25.23;10.10;;;;;;;;;;5078964;28;20684;-69
2022/10/29 04:50:43;;;;;;;19.38;9.30;;;;;;;;;;5079922;28;20208;-69
2022/10/29 04:53:08;;;;;;;16.73;6.38;;;;;;;;;;5081561;28;20177;-67
2022/10/29 04:55:38;;;;;;;10.73;6.05;;;;;;;;;;5075267;28;20201;-67
2022/10/29 04:58:10;;;;;;;12.77;5.70;;;;;;;;;;5069193;28;20564;-68
2022/10/29 05:00:35;;;;;;;10.35;5.10;;;;;;;;;;5073038;28;20282;-69
2022/10/29 05:03:01;;;;;;;13.35;5.30;;;;;;;;;;5072960;28;20181;-69
2022/10/29 05:05:26;;;;;;;15.90;5.55;;;;;;;;;;5070813;28;20189;-69
2022/10/29 05:07:56;;;;;;;11.60;5.28;;;;;;;;;;5067911;28;20187;-69
2022/10/29 05:10:22;;;;;;;10.93;5.10;;;;;;;;;;5074041;28;20284;-69
2022/10/29 05:12:55;;;;;;;12.73;5.68;;;;;;;;;;5083439;28;20263;-69
2022/10/29 05:15:20;;;;;;;12.45;5.30;;;;;;;;;;5078022;28;20641;-69
2022/10/29 05:17:46;;;;;;;13.65;5.47;;;;;;;;;;5067854;28;20333;-67
2022/10/29 05:20:11;;;;;;;12.05;5.72;;;;;;;;;;5081474;28;20194;-68
2022/10/29 05:22:36;;;;;;;10.40;6.30;;;;;;;;;;5069215;28;20186;-68
2022/10/29 05:25:02;;;;;;;18.85;6.43;;;;;;;;;;5075392;28;20188;-69
2022/10/29 05:27:27;;;;;;;16.50;7.07;;;;;;;;;;5072796;28;20172;-69
2022/10/29 05:29:52;;;;;;;11.90;7.43;;;;;;;;;;5080771;28;20678;-69
2022/10/29 05:32:18;;;;;;;19.40;7.20;;;;;;;;;;5082061;28;20299;-69
2022/10/29 05:34:43;;;;;;;13.77;7.10;;;;;;;;;;5070396;28;20620;-68
2022/10/29 05:37:08;;;;;;;12.98;6.45;;;;;;;;;;5072818;28;20176;-68
2022/10/29 05:39:34;;;;;;;20.80;7.55;;;;;;;;;;5070015;28;20277;-69
2022/10/29 05:41:59;;;;;;;20.35;9.32;;;;;;;;;;5067675;28;20241;-68
2022/10/29 05:44:24;;;;;;;19.00;8.07;;;;;;;;;;5069233;28;20271;-68
2022/10/29 05:46:50;;;;;;;14.82;7.85;;;;;;;;;;5086217;28;20180;-68
2022/10/29 05:49:15;;;;;;;21.35;8.45;;;;;;;;;;5080894;28;20184;-69
2022/10/29 05:51:40;;;;;;;22.88;8.82;;;;;;;;;;5087010;28;20199;-68
2022/10/29 05:54:06;;;;;;;21.33;8.65;;;;;;;;;;5081167;28;20271;-69
2022/10/29 05:56:31;;;;;;;24.10;9.48;;;;;;;;;;5078739;28;20682;-69
2022/10/29 05:58:56;;;;;;;29.25;9.60;;;;;;;;;;5075106;28;20191;-69
2022/10/29 06:01:22;;;;;;;29.58;11.13;;;;;;;;;;5079253;28;20556;-69
2022/10/29 06:03:47;;;;;;;33.55;11.02;;;;;;;;;;5081525;28;20212;-70
2022/10/29 06:06:13;;;;;;;34.53;10.18;;;;;;;;;;5072163;28;20203;-69
2022/10/29 06:08:38;;;;;;;28.88;10.85;;;;;;;;;;5072501;28;20340;-69
2022/10/29 06:11:03;;;;;;;33.15;10.95;;;;;;;;;;5074469;28;20215;-67
2022/10/29 06:13:29;;;;;;;25.00;11.32;;;;;;;;;;5079100;28;20573;-68
2022/10/29 06:15:58;;;;;;;24.42;10.50;;;;;;;;;;5073531;28;20287;-68
2022/10/29 06:18:25;;;;;;;27.58;10.55;;;;;;;;;;5072765;28;20195;-68
2022/10/29 06:20:50;;;;;;;23.20;10.35;;;;;;;;;;5070147;28;20189;-69
2022/10/29 06:23:15;;;;;;;22.85;10.63;;;;;;;;;;5070353;28;20189;-68
2022/10/29 06:25:41;;;;;;;21.60;9.50;;;;;;;;;;5074046;28;20181;-67
2022/10/29 06:28:09;;;;;;;25.55;10.70;;;;;;;;;;4378913;28;10000854;-67
2022/10/29 06:30:35;;;;;;;24.50;10.35;;;;;;;;;;5074955;28;20248;-68
2022/10/29 06:33:01;;;;;;;24.92;10.60;;;;;;;;;;5082723;28;20216;-67
2022/10/29 06:35:26;;;;;;;21.75;10.32;;;;;;;;;;5079436;28;20449;-67
2022/10/29 06:37:51;;;;;;;16.75;10.85;;;;;;;;;;5073654;28;20251;-67
2022/10/29 06:40:17;;;;;;;20.27;11.98;;;;;;;;;;5068067;28;20230;-68
2022/10/29 06:42:43;;;;;;;24.67;12.68;;;;;;;;;;5079676;28;20850;-67
2022/10/29 06:45:09;;;;;;;23.45;12.48;;;;;;;;;;5074420;28;20172;-67
2022/10/29 06:47:42;;;;;;;27.92;11.80;;;;;;;;;;5075177;28;20204;-67
2022/10/29 06:50:09;;;;;;;21.00;9.48;;;;;;;;;;5078846;28;20194;-68
2022/10/29 06:52:34;;;;;;;21.48;12.00;;;;;;;;;;5081171;28;20764;-67
2022/10/29 06:55:01;;;;;;;23.30;12.13;;;;;;;;;;5078999;28;20200;-68
2022/10/29 06:57:29;;;;;;;26.02;14.02;;;;;;;;;;5073418;28;20386;-68
2022/10/29 06:59:55;;;;;;;24.38;13.23;;;;;;;;;;5070905;28;20184;-67
2022/10/29 07:02:21;;;;;;;24.80;13.13;;;;;;;;;;5082043;28;20187;-68
2022/10/29 07:04:46;;;;;;;24.67;13.50;;;;;;;;;;5082189;28;20544;-67
2022/10/29 07:07:12;;;;;;;30.17;13.80;;;;;;;;;;5078431;28;20193;-67
2022/10/29 07:09:37;;;;;;;29.33;16.15;;;;;;;;;;5082890;28;20578;-67
2022/10/29 07:12:03;;;;;;;33.05;18.17;;;;;;;;;;5076529;28;20613;-67
2022/10/29 07:14:28;;;;;;;44.10;19.92;;;;;;;;;;5070914;28;20754;-67
2022/10/29 07:16:53;;;;;;;39.58;18.35;;;;;;;;;;5073986;28;20238;-67
2022/10/29 07:19:19;;;;;;;37.08;19.70;;;;;;;;;;5070344;28;20479;-67
2022/10/29 07:21:44;;;;;;;39.22;19.48;;;;;;;;;;5073445;28;20188;-68
2022/10/29 07:24:09;;;;;;;43.90;19.55;;;;;;;;;;5080050;28;20184;-67
2022/10/29 07:26:36;;;;;;;36.90;20.02;;;;;;;;;;5075157;28;20658;-67
2022/10/29 07:29:02;;;;;;;44.55;20.52;;;;;;;;;;5072829;28;20196;-67
2022/10/29 07:31:28;;;;;;;43.83;20.50;;;;;;;;;;5073965;28;20253;-67
2022/10/29 07:33:54;;;;;;;39.45;19.17;;;;;;;;;;5077612;28;20189;-67
2022/10/29 07:36:20;;;;;;;36.65;18.20;;;;;;;;;;5070367;28;20211;-68
2022/10/29 07:38:46;;;;;;;31.25;17.75;;;;;;;;;;5073649;28;20197;-68
2022/10/29 07:41:11;;;;;;;29.48;16.88;;;;;;;;;;5074022;28;20177;-67
2022/10/29 07:43:36;;;;;;;32.25;18.17;;;;;;;;;;5080011;28;20639;-68
2022/10/29 07:46:02;;;;;;;37.35;18.85;;;;;;;;;;5075823;28;20181;-68
2022/10/29 07:48:27;;;;;;;34.13;18.05;;;;;;;;;;5070631;28;20165;-67
2022/10/29 07:50:52;;;;;;;41.83;18.52;;;;;;;;;;5067526;28;20196;-69
2022/10/29 07:53:18;;;;;;;38.30;18.38;;;;;;;;;;5073201;28;20169;-68
2022/10/29 07:55:43;;;;;;;39.58;18.15;;;;;;;;;;5071624;28;20566;-67
2022/10/29 07:58:10;;;;;;;38.53;18.92;;;;;;;;;;5071741;28;20569;-67
2022/10/29 08:00:38;;;;;;;36.13;17.90;;;;;;;;;;5081381;28;20283;-68
2022/10/29 08:03:04;;;;;;;39.65;18.92;;;;;;;;;;5077193;28;20614;-67
2022/10/29 08:05:30;;;;;;;38.60;19.27;;;;;;;;;;5074694;28;20208;-67
2022/10/29 08:07:56;;;;;;;29.98;19.38;;;;;;;;;;5082843;28;20241;-68
2022/10/29 08:10:22;;;;;;;32.22;17.25;;;;;;;;;;5079551;28;20237;-68
2022/10/29 08:12:49;;;;;;;28.52;16.95;;;;;;;;;;5085769;28;20188;-68
2022/10/29 08:15:15;;;;;;;29.80;17.58;;;;;;;;;;5073472;28;20270;-68
2022/10/29 08:17:40;;;;;;;42.53;18.85;;;;;;;;;;5075861;28;20185;-68
2022/10/29 08:20:06;;;;;;;46.88;18.30;;;;;;;;;;5072232;28;20200;-67
2022/10/29 08:22:31;;;;;;;36.35;17.85;;;;;;;;;;5080617;28;20245;-68
2022/10/29 08:24:57;;;;;;;35.20;17.50;;;;;;;;;;5083935;28;20655;-67
2022/10/29 08:27:22;;;;;;;36.75;17.10;;;;;;;;;;5071712;28;20184;-68
2022/10/29 08:29:47;;;;;;;31.95;16.83;;;;;;;;;;5072284;28;20187;-68
2022/10/29 08:32:13;;;;;;;32.28;16.75;;;;;;;;;;5083341;28;20208;-67
2022/10/29 08:34:38;;;;;;;32.67;17.55;;;;;;;;;;5070376;28;20223;-67
2022/10/29 08:37:04;;;;;;;32.97;17.83;;;;;;;;;;5076474;28;20200;-67
2022/10/29 08:39:30;;;;;;;31.20;18.45;;;;;;;;;;5074602;28;20686;-68
2022/10/29 08:42:02;;;;;;;31.85;18.35;;;;;;;;;;5069244;28;20176;-67
2022/10/29 08:44:47;;;;;;;38.03;18.60;;;;;;;;;;5083625;28;20641;-68
2022/10/29 08:47:21;;;;;;;33.78;18.02;;;;;;;;;;5050321;28;20220;-68
2022/10/29 08:50:01;;;;;;;37.65;18.55;;;;;;;;;;5073430;28;20653;-68
2022/10/29 08:52:28;;;;;;;30.70;17.98;;;;;;;;;;5074596;28;20245;-67
2022/10/29 08:55:14;;;;;;;34.72;19.65;;;;;;;;;;5085250;28;20215;-67
2022/10/29 08:57:49;;;;;;;28.52;18.70;;;;;;;;;;5073090;28;20501;-67
2022/10/29 09:00:21;;;;;;;36.22;18.23;;;;;;;;;;5075389;28;20190;-67
2022/10/29 09:02:52;;;;;;;33.63;18.38;;;;;;;;;;5072231;28;20188;-67
2022/10/29 09:05:23;;;;;;;30.80;17.88;;;;;;;;;;5074049;28;20181;-68
2022/10/29 09:08:02;;;;;;;39.95;18.85;;;;;;;;;;5076470;28;20230;-67
2022/10/29 09:10:36;;;;;;;39.95;20.50;;;;;;;;;;5077255;28;20627;-67
2022/10/29 09:13:20;;;;;;;36.28;18.33;;;;;;;;;;5079784;28;20226;-67
2022/10/29 09:16:00;;;;;;;38.13;18.58;;;;;;;;;;5073520;28;20200;-67
2022/10/29 09:18:52;;;;;;;31.15;17.98;;;;;;;;;;5080974;28;20218;-67
2022/10/29 09:22:05;;;;;;;36.72;19.20;;;;;;;;;;5073693;28;20243;-67
2022/10/29 09:24:46;;;;;;;39.80;19.67;;;;;;;;;;5056996;28;20275;-67
2022/10/29 09:27:35;;;;;;;40.22;18.70;;;;;;;;;;5068265;28;20194;-68
2022/10/29 09:30:19;;;;;;;31.92;17.42;;;;;;;;;;5071086;28;20231;-68
2022/10/29 09:33:12;;;;;;;32.35;16.92;;;;;;;;;;5070999;28;20682;-68
2022/10/29 09:35:43;;;;;;;29.42;17.30;;;;;;;;;;5069720;28;20236;-68
2022/10/29 09:38:25;;;;;;;30.45;16.95;;;;;;;;;;5067647;28;20580;-67
2022/10/29 09:40:51;;;;;;;31.38;16.90;;;;;;;;;;5067476;28;20180;-68
2022/10/29 09:43:45;;;;;;;33.00;16.95;;;;;;;;;;5070565;28;20238;-67
2022/10/29 09:46:38;;;;;;;34.58;16.00;;;;;;;;;;5065797;28;20182;-67
2022/10/29 09:49:22;;;;;;;36.25;15.32;;;;;;;;;;5071016;28;20234;-67
2022/10/29 09:51:56;;;;;;;30.70;15.20;;;;;;;;;;5070408;28;20255;-68
2022/10/29 09:54:24;;;;;;;28.27;14.88;;;;;;;;;;5068526;28;20184;-68
2022/10/29 09:56:50;;;;;;;28.70;13.85;;;;;;;;;;5070877;28;20185;-67
2022/10/29 09:59:27;;;;;;;26.30;14.48;;;;;;;;;;5069082;28;20337;-67
2022/10/29 10:01:52;;;;;;;29.98;13.90;;;;;;;;;;5071265;28;20185;-68
2022/10/29 10:04:48;;;;;;;21.88;12.27;;;;;;;;;;5074591;28;20192;-67
2022/10/29 10:07:19;;;;;;;31.15;13.00;;;;;;;;;;5057047;28;20203;-68
2022/10/29 10:10:02;;;;;;;29.92;12.98;;;;;;;;;;5071689;28;20597;-67
2022/10/29 10:12:44;;;;;;;25.40;12.20;;;;;;;;;;5077670;28;20176;-67
2022/10/29 10:15:15;;;;;;;24.10;11.73;;;;;;;;;;5076779;28;20212;-68
2022/10/29 10:18:02;;;;;;;23.75;11.30;;;;;;;;;;5074013;28;20242;-67
2022/10/29 10:20:30;;;;;;;19.48;10.85;;;;;;;;;;5064567;28;20188;-68
2022/10/29 10:22:55;;;;;;;26.02;10.27;;;;;;;;;;5073720;28;20185;-67
2022/10/29 10:25:36;;;;;;;22.50;10.70;;;;;;;;;;5072167;28;20177;-67
2022/10/29 10:28:22;;;;;;;31.08;11.38;;;;;;;;;;5075180;28;20260;-67
2022/10/29 10:31:02;;;;;;;22.08;8.80;;;;;;;;;;5074424;28;20764;-67
2022/10/29 10:33:28;;;;;;;23.70;10.38;;;;;;;;;;5072308;28;20732;-68
2022/10/29 10:35:54;;;;;;;24.13;9.90;;;;;;;;;;5076571;28;20209;-66
2022/10/29 10:38:20;;;;;;;19.98;8.07;;;;;;;;;;5072766;28;20181;-67
2022/10/29 10:41:05;;;;;;;24.17;9.50;;;;;;;;;;5072069;28;20226;-69
2022/10/29 10:43:31;;;;;;;20.55;8.35;;;;;;;;;;5071070;28;20275;-68
2022/10/29 10:45:59;;;;;;;17.02;8.15;;;;;;;;;;5073805;28;20715;-68
2022/10/29 10:48:27;;;;;;;17.77;8.60;;;;;;;;;;5069812;28;20181;-69
2022/10/29 10:51:09;;;;;;;20.05;8.45;;;;;;;;;;5073568;28;20176;-67
2022/10/29 10:53:35;;;;;;;16.05;8.70;;;;;;;;;;5077540;28;20233;-67
2022/10/29 10:56:00;;;;;;;18.33;8.38;;;;;;;;;;5077301;28;20216;-67
2022/10/29 10:58:35;;;;;;;19.67;8.57;;;;;;;;;;5090374;28;20180;-67
2022/10/29 11:01:21;;;;;;;19.85;8.65;;;;;;;;;;5078744;28;20674;-67
2022/10/29 11:03:53;;;;;;;23.25;9.40;;;;;;;;;;5084395;28;20191;-67
2022/10/29 11:06:26;;;;;;;21.60;8.45;;;;;;;;;;5075861;28;20173;-67
2022/10/29 11:09:00;;;;;;;23.02;8.75;;;;;;;;;;5079902;28;20195;-67
2022/10/29 11:11:43;;;;;;;14.43;7.13;;;;;;;;;;5081238;28;20192;-67
2022/10/29 11:14:41;;;;;;;19.05;6.90;;;;;;;;;;5079320;28;20695;-67
2022/10/29 11:17:25;;;;;;;22.35;8.32;;;;;;;;;;5071112;28;20195;-67
2022/10/29 11:19:53;;;;;;;19.92;8.63;;;;;;;;;;5070651;28;20788;-67
2022/10/29 11:22:33;;;;;;;23.45;8.10;;;;;;;;;;5071253;28;20717;-67
2022/10/29 11:25:02;;;;;;;19.63;7.72;;;;;;;;;;5069608;28;20176;-68
2022/10/29 11:27:33;;;;;;;19.85;8.52;;;;;;;;;;5077323;28;20177;-68
2022/10/29 11:30:10;;;;;;;20.65;7.63;;;;;;;;;;5071400;28;20668;-67
2022/10/29 11:32:54;;;;;;;15.05;7.88;;;;;;;;;;5079132;28;20277;-67
2022/10/29 11:35:31;;;;;;;20.38;7.90;;;;;;;;;;5079482;28;20952;-67
2022/10/29 11:37:59;;;;;;;23.77;7.20;;;;;;;;;;5080853;28;20176;-68
2022/10/29 11:40:49;;;;;;;13.85;7.55;;;;;;;;;;5076431;28;20229;-67
2022/10/29 11:43:18;;;;;;;23.02;8.73;;;;;;;;;;5086361;28;20643;-67
2022/10/29 11:46:13;;;;;;;19.40;7.85;;;;;;;;;;5086388;28;20172;-67
2022/10/29 11:49:25;;;;;;;21.60;7.72;;;;;;;;;;5075013;28;20627;-67
2022/10/29 11:52:10;;;;;;;17.90;7.43;;;;;;;;;;5069260;28;20300;-67
2022/10/29 11:54:52;;;;;;;17.70;7.45;;;;;;;;;;5074273;28;20204;-67
2022/10/29 11:57:42;;;;;;;21.65;7.45;;;;;;;;;;5070586;28;20211;-67
2022/10/29 12:00:12;;;;;;;18.35;7.47;;;;;;;;;;5073645;28;20623;-67
2022/10/29 12:02:54;;;;;;;17.38;7.30;;;;;;;;;;5069174;28;20254;-67
2022/10/29 12:05:28;;;;;;;21.38;7.60;;;;;;;;;;5069010;28;20278;-67
2022/10/29 12:08:09;;;;;;;18.85;7.47;;;;;;;;;;5071662;28;20259;-68
2022/10/29 12:10:53;;;;;;;23.75;8.18;;;;;;;;;;5073097;28;20180;-67
2022/10/29 12:13:18;;;;;;;18.92;6.82;;;;;;;;;;5073845;28;20173;-67
2022/10/29 12:15:50;;;;;;;17.90;7.25;;;;;;;;;;5072061;28;20207;-67
2022/10/29 12:18:25;;;;;;;16.15;7.18;;;;;;;;;;5071434;28;20181;-67
2022/10/29 12:20:57;;;;;;;14.18;7.00;;;;;;;;;;5067881;28;20199;-67
2022/10/29 12:23:40;;;;;;;19.35;6.97;;;;;;;;;;5070238;28;20296;-67
2022/10/29 12:26:11;;;;;;;17.08;7.80;;;;;;;;;;5067409;28;20594;-67
2022/10/29 12:28:59;;;;;;;13.23;6.10;;;;;;;;;;5069999;28;20188;-67
2022/10/29 12:31:27;;;;;;;20.63;6.57;;;;;;;;;;5072403;28;20233;-67
2022/10/29 12:34:05;;;;;;;13.07;6.68;;;;;;;;;;5074990;28;20577;-67
2022/10/29 12:36:47;;;;;;;14.30;6.45;;;;;;;;;;5078182;28;20242;-67
2022/10/29 12:39:30;;;;;;;19.67;6.40;;;;;;;;;;5071678;28;20176;-68
2022/10/29 12:42:11;;;;;;;14.63;5.60;;;;;;;;;;5069619;28;20672;-67
2022/10/29 12:45:07;;;;;;;18.35;6.07;;;;;;;;;;5070778;28;20171;-67
2022/10/29 12:47:48;;;;;;;13.63;6.57;;;;;;;;;;5071143;28;20176;-67
2022/10/29 12:51:04;;;;;;;16.85;6.20;;;;;;;;;;5073117;28;20200;-67
2022/10/29 12:54:09;;;;;;;18.48;7.03;;;;;;;;;;5034465;28;20189;-68
2022/10/29 12:56:34;;;;;;;17.25;6.47;;;;;;;;;;5070068;28;20228;-68
2022/10/29 12:59:32;;;;;;;19.13;6.18;;;;;;;;;;5068309;28;20199;-68
2022/10/29 13:02:16;;;;;;;20.17;6.10;;;;;;;;;;5070566;28;20189;-68
2022/10/29 13:05:10;;;;;;;15.38;6.32;;;;;;;;;;5070379;28;20184;-68
2022/10/29 13:07:56;;;;;;;13.70;5.70;;;;;;;;;;5071661;28;20176;-68
2022/10/29 13:10:26;;;;;;;16.15;6.25;;;;;;;;;;5070104;28;20231;-68
2022/10/29 13:12:54;;;;;;;19.17;6.53;;;;;;;;;;5074831;28;20224;-68
2022/10/29 13:15:42;;;;;;;15.50;6.15;;;;;;;;;;5072326;28;20748;-68
2022/10/29 13:18:19;;;;;;;15.57;6.03;;;;;;;;;;5070986;28;20584;-68
2022/10/29 13:20:50;;;;;;;13.88;5.53;;;;;;;;;;5072045;28;20251;-67
2022/10/29 13:23:21;;;;;;;12.80;6.40;;;;;;;;;;5068948;28;20521;-67
2022/10/29 13:25:54;;;;;;;14.02;5.82;;;;;;;;;;5067886;28;20177;-67
2022/10/29 13:28:19;;;;;;;16.00;5.95;;;;;;;;;;5071548;28;20207;-66
2022/10/29 13:31:11;;;;;;;16.50;5.85;;;;;;;;;;5075215;28;20695;-67
2022/10/29 13:33:37;;;;;;;14.30;5.80;;;;;;;;;;5068684;28;20192;-67
2022/10/29 13:36:28;;;;;;;17.45;6.18;;;;;;;;;;5071315;28;20211;-67
2022/10/29 13:38:53;;;;;;;17.33;6.43;;;;;;;;;;5074939;28;20190;-67
2022/10/29 13:41:26;;;;;;;14.13;5.95;;;;;;;;;;5076472;28;20200;-67
2022/10/29 13:44:03;;;;;;;11.88;5.00;;;;;;;;;;5073454;28;20179;-66
2022/10/29 13:47:05;;;;;;;12.73;5.47;;;;;;;;;;5075330;28;20188;-66
2022/10/29 13:49:42;;;;;;;21.15;5.80;;;;;;;;;;5077393;28;20526;-67
2022/10/29 13:52:07;;;;;;;15.38;5.60;;;;;;;;;;5073255;28;20270;-67
2022/10/29 13:54:44;;;;;;;16.60;5.80;;;;;;;;;;5079406;28;20270;-67
2022/10/29 13:57:12;;;;;;;15.10;5.78;;;;;;;;;;5080605;28;20180;-67
2022/10/29 13:59:47;;;;;;;15.65;6.75;;;;;;;;;;5073314;28;20798;-67
2022/10/29 14:02:18;;;;;;;16.60;6.82;;;;;;;;;;5074731;28;20176;-68
2022/10/29 14:04:49;;;;;;;15.48;5.80;;;;;;;;;;5075721;28;20188;-68
2022/10/29 14:07:19;;;;;;;15.90;6.05;;;;;;;;;;5075893;28;20180;-68
2022/10/29 14:09:53;;;;;;;20.98;6.55;;;;;;;;;;5073083;28;20169;-68
2022/10/29 14:12:24;;;;;;;21.42;6.22;;;;;;;;;;5074199;28;20499;-67
2022/10/29 14:15:10;;;;;;;18.73;6.15;;;;;;;;;;5077884;28;20195;-68
2022/10/29 14:17:35;;;;;;;15.00;5.63;;;;;;;;;;5075424;28;20578;-68
2022/10/29 14:20:01;;;;;;;14.80;5.30;;;;;;;;;;5078167;28;20177;-68
2022/10/29 14:22:39;;;;;;;16.38;5.90;;;;;;;;;;5072041;28;20187;-68
2022/10/29 14:25:23;;;;;;;17.67;5.40;;;;;;;;;;5077996;28;20187;-68
2022/10/29 14:28:17;;;;;;;13.40;5.20;;;;;;;;;;5077146;28;20188;-68
2022/10/29 14:30:47;;;;;;;14.65;5.47;;;;;;;;;;5074656;28;20327;-68
2022/10/29 14:33:28;;;;;;;17.77;5.47;;;;;;;;;;5080008;28;20216;-67
2022/10/29 14:36:07;;;;;;;17.13;5.68;;;;;;;;;;5071097;28;20208;-67
2022/10/29 14:38:38;;;;;;;18.83;5.88;;;;;;;;;;5072841;28;20245;-67
2022/10/29 14:41:04;;;;;;;17.42;5.70;;;;;;;;;;5072661;28;20192;-68
2022/10/29 14:43:29;;;;;;;20.63;5.82;;;;;;;;;;5071039;28;20188;-68
2022/10/29 14:46:07;;;;;;;16.77;5.80;;;;;;;;;;5071036;28;20259;-68
2022/10/29 14:48:32;;;;;;;15.75;5.47;;;;;;;;;;5071710;28;20183;-69
2022/10/29 14:50:58;;;;;;;17.58;5.35;;;;;;;;;;5069708;28;20633;-68
2022/10/29 14:53:33;;;;;;;14.60;5.00;;;;;;;;;;5071369;28;20224;-68